Details From LSZR - St.Gallen-Altenrhein
To LSZS - Samedan
Flight Number -
Tags generated
Created
Modified
Stats Distance 59 nm / 109 km
Max Altitude 2,800 ft / 853 m
Waypoints 3
Social Downloads 4
Likes 0
Share

Download

Looking for another format? Having issues loading an existing format? Contact us
Advertisement - Login to hide

Notes

Basic altitude profile: - Ascent Rate: 2500ft/min - Ascent Speed: 250kts - Cruise Altitude: 35000ft - Cruise Speed: 420kts - Descent Rate: 1500ft/min - Descent Speed: 250kts

Route

LSZR VEBEG LSZS

ID Type Via Altitude (ft/m) Position (lat/lon) Dist (leg/tot) Name
O LSZR APT - 0 / 0 47.48556 / 9.56074 - / 0 nm St.Gallen-Altenrhein
VEBEG FIX - 2,800 / 853 47.35500 / 9.59833 7 / 7 nm
O LSZS APT - 0 / 0 46.53421 / 9.88394 50 / 58 nm Samedan

Altitude Profile

Advertisement - Login to hide

LSZR

Details ICAO LSZR (ACH)
Name Sankt Gallen - Altenrhein
Region Switzerland
Timezone Europe/Zurich (UTC+2.0)
Stats Elevation 1,306 ft / 398 m (AMSL)
Location 47.485600° 9.560750°
Runways 2
Magnetic Variation 3.135° E

METAR

LSZR 271620Z AUTO 29013KT 9999 NCD 22/12 Q1020

Decode

TAF

Not found

Departure Runways

ID Width Length Bearing (true/mag) Surface Threshold Overrun Markings Lighting
10 98 ft / 30 m 4,905 ft / 1,495 m 98.76° / 95.62° ASPHALT 331 ft / 101 m 0 ft / 0 m PREC-APP CENTERLINE EDGE THRESHOLD SALS REIL-UNI
10L 75 ft / 23 m 1,956 ft / 596 m 98.72° / 95.59° GRASS 0 ft / 0 m 0 ft / 0 m NONE
28 98 ft / 30 m 4,905 ft / 1,495 m 278.77° / 275.63° ASPHALT 246 ft / 75 m 0 ft / 0 m PREC-APP CENTERLINE EDGE THRESHOLD SALS
28R 75 ft / 23 m 1,956 ft / 596 m 278.73° / 275.59° GRASS 0 ft / 0 m 0 ft / 0 m NONE

LSZS

Details ICAO LSZS (SMV)
Name Samedan
Region Switzerland
Timezone Europe/Zurich (UTC+2.0)
Stats Elevation 5,600 ft / 1,707 m (AMSL)
Location 46.534200° 9.883970°
Runways 1
Magnetic Variation 3.184° E

METAR

LSZS 271620Z 01010KT 9999 FEW075 17/03 Q1022 RMK V TL170

Decode

TAF

Not found

Destination Runways

ID Width Length Bearing (true/mag) Surface Threshold Overrun Markings Lighting
03 131 ft / 40 m 6,045 ft / 1,842 m 29.15° / 25.96° ASPHALT 0 ft / 0 m 0 ft / 0 m APP EDGE THRESHOLD MALSR
21 131 ft / 40 m 6,045 ft / 1,842 m 209.15° / 205.97° ASPHALT 361 ft / 110 m 0 ft / 0 m APP EDGE THRESHOLD MALSR

Popular Alternatives